createdAt,value
2023-02-07T00:01:21.289Z,8.13
2023-02-07T00:03:50.060Z,7.63
2023-02-07T00:06:19.466Z,7.50
2023-02-07T00:08:49.838Z,5.67
2023-02-07T00:11:20.320Z,5.53
2023-02-07T00:13:50.253Z,8.00
2023-02-07T00:16:18.419Z,7.27
2023-02-07T00:18:46.353Z,6.27
2023-02-07T00:21:16.119Z,7.40
2023-02-07T00:23:44.740Z,8.03
2023-02-07T00:26:15.586Z,6.03
2023-02-07T00:28:44.036Z,6.47
2023-02-07T00:31:14.935Z,5.83
2023-02-07T00:33:44.355Z,6.83
2023-02-07T00:36:14.557Z,5.20
2023-02-07T00:38:43.179Z,5.90
2023-02-07T00:41:15.014Z,6.93
2023-02-07T00:43:44.359Z,5.50
2023-02-07T00:46:13.057Z,5.97
2023-02-07T00:48:41.118Z,7.07
2023-02-07T00:51:10.341Z,8.40
2023-02-07T00:53:39.467Z,5.53
2023-02-07T00:56:08.555Z,6.00
2023-02-07T00:58:36.678Z,6.43
2023-02-07T01:01:06.341Z,7.67
2023-02-07T01:03:34.586Z,8.33
2023-02-07T01:06:02.451Z,7.50
2023-02-07T01:08:30.677Z,6.33
2023-02-07T01:10:58.727Z,6.63
2023-02-07T01:13:26.608Z,5.73
2023-02-07T01:15:54.478Z,5.63
2023-02-07T01:18:23.867Z,5.37
2023-02-07T01:20:51.756Z,5.47
2023-02-07T01:23:20.016Z,5.47
2023-02-07T01:25:48.299Z,6.13
2023-02-07T01:28:16.580Z,6.57
2023-02-07T01:30:45.732Z,7.60
2023-02-07T01:33:13.635Z,7.37
2023-02-07T01:35:46.551Z,7.50
2023-02-07T01:38:14.510Z,6.33
2023-02-07T01:40:42.514Z,8.20
2023-02-07T01:43:16.959Z,7.23
2023-02-07T01:45:44.951Z,7.40
2023-02-07T01:48:16.236Z,7.53
2023-02-07T01:50:49.975Z,9.63
2023-02-07T01:53:20.335Z,7.93
2023-02-07T01:55:50.807Z,6.17
2023-02-07T01:58:19.089Z,7.83
2023-02-07T02:00:47.958Z,7.00
2023-02-07T02:03:15.786Z,6.13
2023-02-07T02:05:46.841Z,6.00
2023-02-07T02:08:14.767Z,6.53
2023-02-07T02:11:06.428Z,7.37
2023-02-07T02:13:42.113Z,6.93
2023-02-07T02:16:18.301Z,5.63
2023-02-07T02:19:07.441Z,7.13
2023-02-07T02:22:02.165Z,6.87
2023-02-07T02:25:07.086Z,4.40
2023-02-07T02:27:56.549Z,5.70
2023-02-07T02:30:39.183Z,5.43
2023-02-07T02:33:42.762Z,5.00
2023-02-07T02:36:17.544Z,5.53
2023-02-07T02:38:53.321Z,5.37
2023-02-07T02:41:25.560Z,5.50
2023-02-07T02:43:57.298Z,4.50
2023-02-07T02:46:29.286Z,7.47
2023-02-07T02:48:59.429Z,6.57
2023-02-07T02:51:29.737Z,7.87
2023-02-07T02:53:59.823Z,6.20
2023-02-07T02:56:58.564Z,5.40
2023-02-07T02:59:43.557Z,5.40
2023-02-07T03:02:22.805Z,4.77
2023-02-07T03:05:05.114Z,6.20
2023-02-07T03:07:45.154Z,4.03
2023-02-07T03:10:26.027Z,4.23
2023-02-07T03:12:58.978Z,6.23
2023-02-07T03:15:35.261Z,4.83
2023-02-07T03:18:09.783Z,5.53
2023-02-07T03:20:44.620Z,7.93
2023-02-07T03:23:15.662Z,5.03
2023-02-07T03:25:45.585Z,5.73
2023-02-07T03:28:14.997Z,4.17
2023-02-07T03:30:45.952Z,6.97
2023-02-07T03:33:15.639Z,5.73
2023-02-07T03:35:50.489Z,5.37
2023-02-07T03:38:18.778Z,4.93
2023-02-07T03:40:49.972Z,5.33
2023-02-07T03:43:23.316Z,6.47
2023-02-07T03:45:51.129Z,7.53
2023-02-07T03:48:19.452Z,5.70
2023-02-07T03:50:50.655Z,6.30
2023-02-07T03:53:18.604Z,5.30
2023-02-07T03:55:46.561Z,5.70
2023-02-07T03:58:14.521Z,5.33
2023-02-07T04:00:42.431Z,4.13
2023-02-07T04:03:10.337Z,5.50
2023-02-07T04:05:38.491Z,3.63
2023-02-07T04:08:07.949Z,4.47
2023-02-07T04:10:35.792Z,6.03
2023-02-07T04:13:03.596Z,4.07
2023-02-07T04:15:31.854Z,5.03
2023-02-07T04:17:59.659Z,4.77
2023-02-07T04:20:27.558Z,5.83
2023-02-07T04:22:55.411Z,4.13
2023-02-07T04:25:24.669Z,5.47
2023-02-07T04:27:52.685Z,4.53
2023-02-07T04:30:20.645Z,5.00
2023-02-07T04:32:48.484Z,3.73
2023-02-07T04:35:16.553Z,3.77
2023-02-07T04:37:44.626Z,3.67
2023-02-07T04:40:12.943Z,6.20
2023-02-07T04:42:42.156Z,3.10
2023-02-07T04:45:10.791Z,4.43
2023-02-07T04:47:38.677Z,5.27
2023-02-07T04:50:06.918Z,4.50
2023-02-07T04:52:34.977Z,5.03
2023-02-07T04:55:02.938Z,4.37
2023-02-07T04:57:30.888Z,5.37
2023-02-07T05:00:00.273Z,6.37
2023-02-07T05:02:28.306Z,4.27
2023-02-07T05:04:56.166Z,5.43
2023-02-07T05:07:23.995Z,6.30
2023-02-07T05:09:52.034Z,3.60
2023-02-07T05:12:19.978Z,4.83
2023-02-07T05:14:47.832Z,3.33
2023-02-07T05:17:17.222Z,4.17
2023-02-07T05:19:45.046Z,5.17
2023-02-07T05:22:12.894Z,3.70
2023-02-07T05:24:40.907Z,4.70
2023-02-07T05:27:08.814Z,4.33
2023-02-07T05:29:36.650Z,6.27
2023-02-07T05:32:22.296Z,4.37
2023-02-07T05:34:51.586Z,5.60
2023-02-07T05:37:19.520Z,4.20
2023-02-07T05:39:47.391Z,4.53
2023-02-07T05:42:15.258Z,5.10
2023-02-07T05:44:43.112Z,4.03
2023-02-07T05:47:11.126Z,5.37
2023-02-07T05:49:39.306Z,5.20
2023-02-07T05:52:08.516Z,4.07
2023-02-07T05:54:36.430Z,3.10
2023-02-07T05:57:04.417Z,3.83
2023-02-07T05:59:32.294Z,4.10
2023-02-07T06:02:00.224Z,5.40
2023-02-07T06:04:28.150Z,6.10
2023-02-07T06:06:55.975Z,7.83
2023-02-07T06:09:25.165Z,5.13
2023-02-07T06:11:53.019Z,6.07
2023-02-07T06:14:20.940Z,6.33
2023-02-07T06:16:48.862Z,7.40
2023-02-07T06:19:16.992Z,5.13
2023-02-07T06:21:46.651Z,6.00
2023-02-07T06:24:15.067Z,4.20
2023-02-07T06:26:46.700Z,3.67
2023-02-07T06:29:15.326Z,5.97
2023-02-07T06:31:43.372Z,3.33
2023-02-07T06:34:11.416Z,6.80
2023-02-07T06:36:39.368Z,3.33
2023-02-07T06:39:07.284Z,3.13
2023-02-07T06:41:35.187Z,4.50
2023-02-07T06:44:04.624Z,5.33
2023-02-07T06:46:32.817Z,3.50
2023-02-07T06:49:00.835Z,3.27
2023-02-07T06:51:28.637Z,4.13
2023-02-07T06:53:56.498Z,4.30
2023-02-07T06:56:24.329Z,4.07
2023-02-07T06:58:52.297Z,3.17
2023-02-07T07:01:22.496Z,3.27
2023-02-07T07:03:51.774Z,4.87
2023-02-07T07:06:19.737Z,3.97
2023-02-07T07:08:47.647Z,5.27
2023-02-07T07:11:15.547Z,3.70
2023-02-07T07:13:43.593Z,5.87
2023-02-07T07:16:11.658Z,3.20
2023-02-07T07:18:41.495Z,3.90
2023-02-07T07:21:10.071Z,4.83
2023-02-07T07:23:38.201Z,3.73
2023-02-07T07:26:06.319Z,5.77
2023-02-07T07:28:34.216Z,5.07
2023-02-07T07:31:06.712Z,7.70
2023-02-07T07:33:36.692Z,7.63
2023-02-07T07:36:08.807Z,4.77
2023-02-07T07:41:06.094Z,6.87
2023-02-07T07:43:34.195Z,5.80
2023-02-07T07:46:02.462Z,6.77
2023-02-07T07:48:30.886Z,6.80
2023-02-07T07:50:58.918Z,7.63
2023-02-07T07:53:29.052Z,7.20
2023-02-07T07:55:58.140Z,5.57
2023-02-07T07:58:29.603Z,7.23
2023-02-07T08:00:58.292Z,6.37
2023-02-07T08:03:26.269Z,7.60
2023-02-07T08:05:54.777Z,5.53
2023-02-07T08:08:22.657Z,6.30
2023-02-07T08:10:52.015Z,8.20
2023-02-07T08:13:20.215Z,8.43
2023-02-07T08:15:48.380Z,7.20
2023-02-07T08:18:16.244Z,8.10
2023-02-07T08:20:44.213Z,9.40
2023-02-07T08:23:13.276Z,9.40
2023-02-07T08:25:42.311Z,11.93
2023-02-07T08:28:12.105Z,11.77
2023-02-07T08:30:40.536Z,10.03
2023-02-07T08:33:08.796Z,9.00
2023-02-07T08:35:38.135Z,8.00
2023-02-07T08:38:06.105Z,6.23
2023-02-07T08:40:34.586Z,8.30
2023-02-07T08:43:05.306Z,7.90
2023-02-07T08:45:35.083Z,7.40
2023-02-07T08:48:03.093Z,7.90
2023-02-07T08:50:31.145Z,10.80
2023-02-07T08:52:59.453Z,9.87
2023-02-07T08:55:27.720Z,11.00
2023-02-07T08:57:55.687Z,9.13
2023-02-07T09:00:23.926Z,9.43
2023-02-07T09:02:53.483Z,9.33
2023-02-07T09:05:21.776Z,9.30
2023-02-07T09:07:49.984Z,10.57
2023-02-07T09:10:18.064Z,11.00
2023-02-07T09:12:46.064Z,10.03
2023-02-07T09:15:14.183Z,11.13
2023-02-07T09:17:42.306Z,12.63
2023-02-07T09:20:13.056Z,11.67
2023-02-07T09:22:54.956Z,11.43
2023-02-07T09:25:23.102Z,11.57
2023-02-07T09:27:52.040Z,11.43
2023-02-07T09:30:20.276Z,9.87
2023-02-07T09:32:48.329Z,10.70
2023-02-07T09:35:17.917Z,12.60
2023-02-07T09:37:49.803Z,11.80
2023-02-07T09:40:19.732Z,12.77
2023-02-07T09:42:54.704Z,13.10
2023-02-07T09:45:28.180Z,11.57
2023-02-07T09:48:03.129Z,12.20
2023-02-07T09:50:37.393Z,11.90
2023-02-07T09:53:12.348Z,12.63
2023-02-07T09:55:47.576Z,12.10
2023-02-07T09:58:20.022Z,11.37
2023-02-07T10:00:54.527Z,9.23
2023-02-07T10:03:25.305Z,11.57
2023-02-07T10:06:09.295Z,10.53
2023-02-07T10:08:45.982Z,11.30
2023-02-07T10:11:26.213Z,10.43
2023-02-07T10:14:18.119Z,10.30
2023-02-07T10:16:58.480Z,9.67
2023-02-07T10:19:41.511Z,9.60
2023-02-07T10:22:19.874Z,9.27
2023-02-07T10:28:29.215Z,9.53
2023-02-07T10:31:02.171Z,9.33
2023-02-07T10:36:49.905Z,9.03
2023-02-07T10:39:29.890Z,9.33
2023-02-07T10:45:04.096Z,9.30
2023-02-07T10:47:35.418Z,8.80
2023-02-07T10:50:09.376Z,8.07
2023-02-07T10:52:42.930Z,7.43
2023-02-07T10:55:14.125Z,7.63
2023-02-07T10:57:50.906Z,8.13
2023-02-07T11:00:25.767Z,6.77
2023-02-07T11:02:55.415Z,6.87
2023-02-07T11:05:42.495Z,6.87
2023-02-07T11:08:24.815Z,7.57
2023-02-07T11:11:57.195Z,6.30
2023-02-07T11:14:53.517Z,7.60
2023-02-07T11:17:23.132Z,6.60
2023-02-07T11:19:56.558Z,7.57
2023-02-07T11:22:26.877Z,6.70
2023-02-07T11:28:15.166Z,7.70
2023-02-07T11:30:44.938Z,8.80
2023-02-07T11:33:21.031Z,7.67
2023-02-07T11:36:07.717Z,7.70
2023-02-07T11:38:40.546Z,7.13
2023-02-07T11:41:18.680Z,6.70
2023-02-07T11:43:59.978Z,8.03
2023-02-07T11:46:41.869Z,7.37
2023-02-07T11:49:26.639Z,6.67
2023-02-07T11:51:57.552Z,6.93
2023-02-07T11:54:26.550Z,7.53
2023-02-07T11:57:01.141Z,8.37
2023-02-07T11:59:29.770Z,7.37
2023-02-07T12:02:04.774Z,6.30
2023-02-07T12:04:37.874Z,6.67
2023-02-07T12:07:09.747Z,6.20
2023-02-07T12:09:45.473Z,7.07
2023-02-07T12:12:18.228Z,7.37
2023-02-07T12:14:51.700Z,6.07
2023-02-07T12:17:26.304Z,6.93
2023-02-07T12:19:57.769Z,6.83
2023-02-07T12:22:31.778Z,7.20
2023-02-07T12:25:05.359Z,6.97
2023-02-07T12:27:39.378Z,6.27
2023-02-07T12:30:17.740Z,6.23
2023-02-07T12:32:54.677Z,5.13
2023-02-07T12:35:27.510Z,5.90
2023-02-07T12:38:02.607Z,6.10
2023-02-07T12:40:36.709Z,5.63
2023-02-07T12:43:13.647Z,6.50
2023-02-07T12:46:05.505Z,6.17
2023-02-07T12:48:47.835Z,5.50
2023-02-07T12:51:25.446Z,5.27
2023-02-07T12:54:09.150Z,4.90
2023-02-07T12:56:43.916Z,5.00
2023-02-07T12:59:26.393Z,7.20
2023-02-07T13:02:04.030Z,5.53
2023-02-07T13:04:54.110Z,5.80
2023-02-07T13:07:42.899Z,4.57
2023-02-07T13:10:22.902Z,4.67
2023-02-07T13:12:55.763Z,4.07
2023-02-07T13:15:28.629Z,4.90
2023-02-07T13:18:01.682Z,4.47
2023-02-07T13:20:41.970Z,4.47
2023-02-07T13:23:18.344Z,4.47
2023-02-07T13:25:51.013Z,4.87
2023-02-07T13:28:24.755Z,4.70
2023-02-07T13:30:57.462Z,4.23
2023-02-07T13:33:32.158Z,4.50
2023-02-07T13:36:05.123Z,5.03
2023-02-07T13:38:47.550Z,4.70
2023-02-07T13:41:30.021Z,5.90
2023-02-07T13:44:10.130Z,4.23
2023-02-07T13:46:56.381Z,4.57
2023-02-07T13:49:34.390Z,4.83
2023-02-07T13:52:11.658Z,5.47
2023-02-07T13:54:45.708Z,3.83
2023-02-07T13:57:39.627Z,3.73
2023-02-07T14:00:18.873Z,6.00
2023-02-07T14:02:53.642Z,4.87
2023-02-07T14:05:27.754Z,4.73
2023-02-07T14:08:02.191Z,5.47
2023-02-07T14:10:41.629Z,6.23
2023-02-07T14:13:24.198Z,6.63
2023-02-07T14:15:58.846Z,6.77
2023-02-07T14:18:49.431Z,5.83
2023-02-07T14:21:39.861Z,4.90
2023-02-07T14:24:33.177Z,5.73
2023-02-07T14:27:06.140Z,6.50
2023-02-07T14:29:42.526Z,6.00
2023-02-07T14:32:43.195Z,6.20
2023-02-07T14:35:30.990Z,6.57
2023-02-07T14:38:04.832Z,6.20
2023-02-07T14:41:01.779Z,6.03
2023-02-07T14:43:57.029Z,5.07
2023-02-07T14:46:39.152Z,5.80
2023-02-07T14:49:14.787Z,7.50
2023-02-07T14:51:47.344Z,6.33
2023-02-07T14:54:21.288Z,4.83
2023-02-07T14:57:09.254Z,6.70
2023-02-07T14:59:41.676Z,5.43
2023-02-07T15:02:38.530Z,6.67
2023-02-07T15:05:18.749Z,5.27
2023-02-07T15:07:47.300Z,5.27
2023-02-07T15:10:16.853Z,6.93
2023-02-07T15:12:47.389Z,5.57
2023-02-07T15:15:21.589Z,5.77
2023-02-07T15:17:51.056Z,5.63
2023-02-07T15:20:22.086Z,5.73
2023-02-07T15:22:54.500Z,5.57
2023-02-07T15:25:23.067Z,5.93
2023-02-07T15:28:07.726Z,4.83
2023-02-07T15:30:37.847Z,5.20
2023-02-07T15:33:13.355Z,4.93
2023-02-07T15:35:41.753Z,4.87
2023-02-07T15:38:19.056Z,5.13
2023-02-07T15:40:47.121Z,5.63
2023-02-07T15:43:27.758Z,5.53
2023-02-07T15:46:05.576Z,4.93
2023-02-07T15:48:34.097Z,5.37
2023-02-07T15:51:05.668Z,4.03
2023-02-07T15:53:33.866Z,4.73
2023-02-07T15:56:05.586Z,5.23
2023-02-07T15:58:37.274Z,4.53
2023-02-07T16:01:07.423Z,4.73
2023-02-07T16:03:38.393Z,7.27
2023-02-07T16:06:14.360Z,4.50
2023-02-07T16:08:45.222Z,5.10
2023-02-07T16:11:39.907Z,4.20
2023-02-07T16:14:32.002Z,4.07
2023-02-07T16:17:00.434Z,4.50
2023-02-07T16:19:32.709Z,3.20
2023-02-07T16:22:05.417Z,3.77
2023-02-07T16:24:36.303Z,4.07
2023-02-07T16:27:06.157Z,4.23
2023-02-07T16:29:37.374Z,3.07
2023-02-07T16:32:05.843Z,4.27
2023-02-07T16:34:33.808Z,3.10
2023-02-07T16:37:01.769Z,3.50
2023-02-07T16:39:29.714Z,4.33
2023-02-07T16:42:02.452Z,3.97
2023-02-07T16:44:31.224Z,3.27
2023-02-07T16:47:00.538Z,3.73
2023-02-07T16:49:31.363Z,3.97
2023-02-07T16:51:59.891Z,3.10
2023-02-07T16:54:27.920Z,3.70
2023-02-07T16:56:58.347Z,5.10
2023-02-07T16:59:26.322Z,4.10
2023-02-07T17:01:55.198Z,3.73
2023-02-07T17:04:24.764Z,4.17
2023-02-07T17:06:53.036Z,3.37
2023-02-07T17:09:23.103Z,4.77
2023-02-07T17:11:51.070Z,4.00
2023-02-07T17:14:19.000Z,2.60
2023-02-07T17:16:47.018Z,3.77
2023-02-07T17:19:18.303Z,3.83
2023-02-07T17:21:47.699Z,4.73
2023-02-07T17:24:15.994Z,4.00
2023-02-07T17:26:47.122Z,3.33
2023-02-07T17:29:17.973Z,5.40
2023-02-07T17:31:46.890Z,3.97
2023-02-07T17:34:14.939Z,4.50
2023-02-07T17:36:46.816Z,4.77
2023-02-07T17:39:17.120Z,3.93
2023-02-07T17:41:45.352Z,3.70
2023-02-07T17:44:13.249Z,4.00
2023-02-07T17:46:41.140Z,4.43
2023-02-07T17:49:14.628Z,4.60
2023-02-07T17:51:42.649Z,9.73
2023-02-07T17:54:10.578Z,13.40
2023-02-07T17:56:39.984Z,19.93
2023-02-07T17:59:10.144Z,25.63
2023-02-07T18:01:38.177Z,21.43
2023-02-07T18:04:06.411Z,18.87
2023-02-07T18:06:34.244Z,16.87
2023-02-07T18:09:02.094Z,18.10
2023-02-07T18:11:31.315Z,15.70
2023-02-07T18:14:02.107Z,17.53
2023-02-07T18:16:30.217Z,13.50
2023-02-07T18:18:58.460Z,16.03
2023-02-07T18:21:27.806Z,13.00
2023-02-07T18:23:56.399Z,16.50
2023-02-07T18:26:24.955Z,13.63
2023-02-07T18:28:52.910Z,16.73
2023-02-07T18:31:25.248Z,15.37
2023-02-07T18:33:54.735Z,20.17
2023-02-07T18:36:24.487Z,19.43
2023-02-07T18:38:52.505Z,23.93
2023-02-07T18:41:24.050Z,24.70
2023-02-07T18:43:52.518Z,23.67
2023-02-07T18:46:23.052Z,21.83
2023-02-07T18:48:56.681Z,20.33
2023-02-07T18:51:25.103Z,16.40
2023-02-07T18:53:54.911Z,16.37
2023-02-07T18:56:25.682Z,13.67
2023-02-07T18:58:56.657Z,17.47
2023-02-07T19:01:29.005Z,14.73
2023-02-07T19:03:58.739Z,16.93
2023-02-07T19:06:28.898Z,15.23
2023-02-07T19:08:57.352Z,13.30
2023-02-07T19:11:25.614Z,15.77
2023-02-07T19:13:55.157Z,15.23
2023-02-07T19:16:25.945Z,16.03
2023-02-07T19:18:54.044Z,18.40
2023-02-07T19:21:27.213Z,19.97
2023-02-07T19:23:56.096Z,18.03
2023-02-07T19:26:25.333Z,14.87
2023-02-07T19:28:54.111Z,14.63
2023-02-07T19:31:24.741Z,14.47
2023-02-07T19:33:54.469Z,15.47
2023-02-07T19:36:23.668Z,12.90
2023-02-07T19:38:53.828Z,12.80
2023-02-07T19:41:22.597Z,14.20
2023-02-07T19:43:51.077Z,12.07
2023-02-07T19:46:19.684Z,16.33
2023-02-07T19:48:48.519Z,14.70
2023-02-07T19:51:21.028Z,11.10
2023-02-07T19:53:51.260Z,15.27
2023-02-07T19:56:20.807Z,13.33
2023-02-07T19:58:50.649Z,13.27
2023-02-07T20:01:19.519Z,15.33
2023-02-07T20:03:51.306Z,14.07
2023-02-07T20:06:23.513Z,13.80
2023-02-07T20:08:51.919Z,14.07
2023-02-07T20:11:22.341Z,11.70
2023-02-07T20:13:54.207Z,13.07
2023-02-07T20:16:24.378Z,12.87
2023-02-07T20:18:53.723Z,14.77
2023-02-07T20:21:28.419Z,15.80
2023-02-07T20:23:57.972Z,11.23
2023-02-07T20:26:30.545Z,12.47
2023-02-07T20:29:01.380Z,15.17
2023-02-07T20:31:31.871Z,13.50
2023-02-07T20:34:02.178Z,14.63
2023-02-07T20:36:33.661Z,16.60
2023-02-07T20:39:03.204Z,15.00
2023-02-07T20:41:31.488Z,13.97
2023-02-07T20:44:03.639Z,13.23
2023-02-07T20:46:34.268Z,13.40
2023-02-07T20:49:05.067Z,14.10
2023-02-07T20:51:34.762Z,12.67
2023-02-07T20:54:04.945Z,11.03
2023-02-07T20:56:33.829Z,12.70
2023-02-07T20:59:02.086Z,11.67
2023-02-07T21:01:32.299Z,12.00
2023-02-07T21:04:01.909Z,11.77
2023-02-07T21:06:30.577Z,11.57
2023-02-07T21:09:02.402Z,9.83
2023-02-07T21:11:33.882Z,9.83
2023-02-07T21:14:02.071Z,10.00
2023-02-07T21:16:30.974Z,9.53
2023-02-07T21:18:59.151Z,8.07
2023-02-07T21:21:27.901Z,8.50
2023-02-07T21:23:56.380Z,10.13
2023-02-07T21:26:27.537Z,10.07
2023-02-07T21:28:58.696Z,10.53
2023-02-07T21:31:27.010Z,9.17
2023-02-07T21:33:55.294Z,8.03
2023-02-07T21:36:25.455Z,9.30
2023-02-07T21:38:54.959Z,10.23
2023-02-07T21:41:26.905Z,7.97
2023-02-07T21:43:55.976Z,7.47
2023-02-07T21:46:26.729Z,8.87
2023-02-07T21:48:58.915Z,8.27
2023-02-07T21:51:27.735Z,7.77
2023-02-07T21:53:57.095Z,8.83
2023-02-07T21:56:29.305Z,8.60
2023-02-07T21:58:59.432Z,6.80
2023-02-07T22:01:28.413Z,7.13
2023-02-07T22:03:59.130Z,8.07
2023-02-07T22:06:27.664Z,9.10
2023-02-07T22:08:57.282Z,7.87
2023-02-07T22:11:30.666Z,9.77
2023-02-07T22:13:58.957Z,9.27
2023-02-07T22:16:28.850Z,7.90
2023-02-07T22:18:58.804Z,9.07
2023-02-07T22:21:28.457Z,9.07
2023-02-07T22:23:57.474Z,5.80
2023-02-07T22:26:28.414Z,6.47
2023-02-07T22:28:57.143Z,7.23
2023-02-07T22:31:28.005Z,5.57
2023-02-07T22:33:59.688Z,6.30
2023-02-07T22:36:29.994Z,6.03
2023-02-07T22:38:59.639Z,5.70
2023-02-07T22:41:29.645Z,6.50
2023-02-07T22:43:58.007Z,5.87
2023-02-07T22:46:26.608Z,4.83
2023-02-07T22:48:54.671Z,4.80
2023-02-07T22:51:25.316Z,5.53
2023-02-07T22:53:57.028Z,4.87
2023-02-07T22:56:26.182Z,4.07
2023-02-07T22:58:56.697Z,5.67
2023-02-07T23:01:26.865Z,4.67
2023-02-07T23:03:56.101Z,4.83
2023-02-07T23:06:25.332Z,5.10
2023-02-07T23:08:53.859Z,6.37
2023-02-07T23:11:23.996Z,5.33
2023-02-07T23:13:53.198Z,5.00
2023-02-07T23:16:25.756Z,5.53
2023-02-07T23:18:57.208Z,4.80
2023-02-07T23:21:26.868Z,3.47
2023-02-07T23:23:55.294Z,5.13
2023-02-07T23:26:25.181Z,5.37
2023-02-07T23:28:54.100Z,6.20
2023-02-07T23:31:25.657Z,3.97
2023-02-07T23:33:55.079Z,3.97
2023-02-07T23:36:23.283Z,4.47
2023-02-07T23:38:52.021Z,6.00
2023-02-07T23:41:20.148Z,5.00
2023-02-07T23:43:48.558Z,5.33
2023-02-07T23:46:17.430Z,4.93
2023-02-07T23:48:47.142Z,5.53
2023-02-07T23:51:15.847Z,4.57
2023-02-07T23:53:44.822Z,4.63
2023-02-07T23:56:17.459Z,4.90
2023-02-07T23:58:46.517Z,3.83
